»·PEaware :: SWA3758 KSFO-KPDX

SWA3758 :: KSFO-KPDX

FLIGHT INFORMATION

Flight Status: Arrived
Operator:
Southwest Airlines
More flights by this operator :: More flights under this callsign
Pilot: Marissa K. (19829)
Aircraft: BOEING 737-800
(B738)
More flights by this aircraft type
Origin: KSFO San Francisco Intl
United States
Destination: KPDX Portland Intl
United States
More flights between these airports :: More routes between these airports
Route: +TRUKN2 GRTFL MACHU TMBRS2
File this flight plan on PilotEdge
Remarks: RMK / NEW PILOT
Altitude:
(Current/Filed)
38,000ft
Speed:
(Current/Filed)
285kts
Departed: 05-Aug-18 01:45 PM
Arrived: 05-Aug-18 03:13 PM
Distance/Time
Traveled:
478nm/1:27
Distance/Time
To Go:
Arrived

Flight Plot

Page will automatically refresh every two minutes.


Map Options




Map Legend


Flown Route
Filed Route
Departure Airport
Arrival Airport
Navaid (VOR, NDB)
Fix

Horizontal Profiles

Position Reports

Time Latitude Longitude Heading Altitude Ground
Speed
05-Aug-18 13:00 37.613408 -122.385646 80 31ft 0kts
05-Aug-18 13:01 37.613408 -122.385646 80 31ft 0kts
05-Aug-18 13:02 37.613408 -122.385646 80 31ft 0kts
05-Aug-18 13:03 37.613408 -122.385646 80 31ft 0kts
05-Aug-18 13:04 37.613408 -122.385646 80 31ft 0kts
05-Aug-18 13:05 37.613408 -122.385646 80 31ft 0kts
05-Aug-18 13:06 37.613408 -122.385646 80 31ft 0kts
05-Aug-18 13:07 37.613408 -122.385646 80 31ft 0kts
05-Aug-18 13:08 37.613408 -122.385646 80 31ft 0kts
05-Aug-18 13:09 37.613408 -122.385646 80 31ft 0kts
05-Aug-18 13:10 37.613408 -122.385646 80 31ft 0kts
05-Aug-18 13:11 37.613408 -122.385646 80 31ft 0kts
05-Aug-18 13:12 37.613408 -122.385646 80 31ft 0kts
05-Aug-18 13:13 37.613408 -122.385646 80 31ft 0kts
05-Aug-18 13:14 37.613408 -122.385646 80 31ft 0kts
05-Aug-18 13:15 37.613408 -122.385646 80 31ft 0kts
05-Aug-18 13:16 37.613408 -122.385646 80 31ft 0kts
05-Aug-18 13:17 37.613408 -122.385646 80 31ft 0kts
05-Aug-18 13:18 37.613408 -122.385646 80 31ft 0kts
05-Aug-18 13:19 37.613408 -122.385646 80 31ft 0kts
05-Aug-18 13:20 37.613408 -122.385646 80 31ft 0kts
05-Aug-18 13:21 37.613408 -122.385646 80 31ft 0kts
05-Aug-18 13:22 37.613408 -122.385646 80 31ft 0kts
05-Aug-18 13:23 37.613408 -122.385646 80 31ft 0kts
05-Aug-18 13:24 37.613408 -122.385646 80 31ft 0kts
05-Aug-18 13:25 37.613408 -122.385646 80 31ft 0kts
05-Aug-18 13:26 37.613408 -122.385646 80 31ft 0kts
05-Aug-18 13:27 37.613408 -122.385646 80 31ft 0kts
05-Aug-18 13:28 37.613408 -122.385646 80 31ft 0kts
05-Aug-18 13:29 37.613408 -122.385646 80 31ft 0kts
05-Aug-18 13:30 37.613408 -122.385646 80 31ft 0kts
05-Aug-18 13:31 37.613408 -122.385646 80 31ft 0kts
05-Aug-18 13:32 37.613408 -122.385646 80 31ft 0kts
05-Aug-18 13:33 37.613408 -122.385646 80 31ft 0kts
05-Aug-18 13:34 37.613408 -122.385646 80 31ft 0kts
05-Aug-18 13:35 37.613408 -122.385646 80 31ft 0kts
05-Aug-18 13:36 37.613408 -122.385646 80 31ft 0kts
05-Aug-18 13:37 37.613320 -122.386297 114 31ft 1kts
05-Aug-18 13:38 37.613533 -122.386322 207 31ft 0kts
05-Aug-18 13:39 37.613533 -122.386322 208 31ft 0kts
05-Aug-18 13:40 37.613533 -122.386322 208 31ft 0kts
05-Aug-18 13:41 37.613533 -122.386322 208 31ft 0kts
05-Aug-18 13:42 37.613533 -122.386322 208 31ft 0kts
05-Aug-18 13:43 37.612016 -122.387214 183 31ft 16kts
05-Aug-18 13:44 37.610192 -122.384229 159 31ft 18kts
05-Aug-18 13:45 37.609009 -122.383552 129 31ft 0kts
05-Aug-18 13:46 37.610583 -122.381259 23 30ft 47kts
05-Aug-18 13:47 37.644524 -122.356794 27 1448ft 174kts
05-Aug-18 13:48 37.678435 -122.293200 58 3007ft 250kts
05-Aug-18 13:49 37.721844 -122.221785 22 6129ft 277kts
05-Aug-18 13:50 37.797811 -122.215265 356 9602ft 289kts
05-Aug-18 13:51 37.879976 -122.217897 356 12847ft 308kts
05-Aug-18 13:52 37.967112 -122.220430 355 16041ft 326kts
05-Aug-18 13:53 38.060412 -122.223122 354 18504ft 361kts
05-Aug-18 13:54 38.159321 -122.225895 354 20984ft 384kts
05-Aug-18 13:55 38.267444 -122.228862 353 23496ft 400kts
05-Aug-18 13:56 38.379636 -122.232959 349 25709ft 414kts
05-Aug-18 13:57 38.495975 -122.245380 349 27753ft 429kts
05-Aug-18 13:58 38.614929 -122.258022 349 29684ft 440kts
05-Aug-18 13:59 38.736127 -122.270760 348 31875ft 439kts
05-Aug-18 14:00 38.856900 -122.283456 347 33891ft 437kts
05-Aug-18 14:01 38.976373 -122.296013 348 36043ft 425kts
05-Aug-18 14:02 39.092767 -122.308339 348 37753ft 419kts
05-Aug-18 14:03 39.206658 -122.320638 348 37962ft 448kts
05-Aug-18 14:04 39.332864 -122.334180 349 37949ft 460kts
05-Aug-18 14:05 39.460275 -122.347773 349 37949ft 460kts
05-Aug-18 14:06 39.586736 -122.361321 349 37947ft 460kts
05-Aug-18 14:07 39.713951 -122.375006 349 37934ft 460kts
05-Aug-18 14:08 39.840959 -122.388722 349 37933ft 460kts
05-Aug-18 14:09 39.968370 -122.402509 349 37934ft 460kts
05-Aug-18 14:10 40.095313 -122.416331 349 37933ft 460kts
05-Aug-18 14:11 40.217856 -122.429711 349 37926ft 460kts
05-Aug-18 14:12 40.344718 -122.443620 349 37924ft 460kts
05-Aug-18 14:13 40.470976 -122.457580 350 37913ft 462kts
05-Aug-18 14:14 40.598318 -122.471629 350 37914ft 461kts
05-Aug-18 14:15 40.725807 -122.485787 350 37910ft 461kts
05-Aug-18 14:16 40.852905 -122.499930 350 37917ft 460kts
05-Aug-18 14:17 40.980316 -122.514169 351 37916ft 461kts
05-Aug-18 14:18 41.104070 -122.528211 355 37969ft 455kts
05-Aug-18 14:19 41.226241 -122.541952 355 38015ft 452kts
05-Aug-18 14:20 41.351055 -122.555975 355 38034ft 452kts
05-Aug-18 14:21 41.475831 -122.570078 355 38036ft 452kts
05-Aug-18 14:22 41.601079 -122.581276 357 38035ft 451kts
05-Aug-18 14:23 41.726012 -122.589188 357 38036ft 451kts
05-Aug-18 14:24 41.851376 -122.597228 357 38033ft 452kts
05-Aug-18 14:25 41.976764 -122.605333 357 38032ft 451kts
05-Aug-18 14:26 42.100810 -122.613455 357 38033ft 451kts
05-Aug-18 14:27 42.223169 -122.621514 357 37995ft 451kts
05-Aug-18 14:28 42.347839 -122.629759 357 37981ft 452kts
05-Aug-18 14:29 42.473085 -122.638154 357 37977ft 452kts
05-Aug-18 14:30 42.598463 -122.646561 357 37983ft 451kts
05-Aug-18 14:31 42.721439 -122.654844 356 37982ft 452kts
05-Aug-18 14:32 42.846599 -122.663293 356 37980ft 452kts
05-Aug-18 14:33 42.972184 -122.671812 355 37985ft 457kts
05-Aug-18 14:34 43.098876 -122.680402 355 37994ft 457kts
05-Aug-18 14:35 43.221091 -122.688771 355 38009ft 457kts
05-Aug-18 14:36 43.347674 -122.697476 355 38009ft 457kts
05-Aug-18 14:37 43.473879 -122.706167 355 38009ft 455kts
05-Aug-18 14:38 43.599550 -122.714838 355 38004ft 456kts
05-Aug-18 14:39 43.725186 -122.723536 355 36030ft 456kts
05-Aug-18 14:40 43.851171 -122.732296 355 32720ft 457kts
05-Aug-18 14:41 43.976619 -122.741064 355 29665ft 445kts
05-Aug-18 14:42 44.096658 -122.749475 356 27194ft 424kts
05-Aug-18 14:43 44.206257 -122.749235 3 24956ft 412kts
05-Aug-18 14:44 44.318514 -122.737642 3 22640ft 402kts
05-Aug-18 14:45 44.427437 -122.726602 3 20418ft 388kts
05-Aug-18 14:46 44.530254 -122.716249 4 18721ft 352kts
05-Aug-18 14:47 44.623067 -122.706896 4 17266ft 322kts
05-Aug-18 14:48 44.714243 -122.697658 4 16452ft 327kts
05-Aug-18 14:49 44.802684 -122.688692 4 14898ft 318kts
05-Aug-18 14:50 44.889257 -122.679935 4 13417ft 311kts
05-Aug-18 14:51 44.974741 -122.671273 4 11993ft 305kts
05-Aug-18 14:52 45.057755 -122.662841 4 10629ft 296kts
05-Aug-18 14:53 45.136786 -122.654740 3 9367ft 295kts
05-Aug-18 14:54 45.217395 -122.646474 3 8084ft 288kts
05-Aug-18 14:55 45.289745 -122.608989 32 6881ft 278kts
05-Aug-18 14:56 45.352805 -122.551536 32 5753ft 256kts
05-Aug-18 14:57 45.409224 -122.500348 32 4913ft 228kts
05-Aug-18 14:58 45.458877 -122.453290 32 4572ft 211kts
05-Aug-18 14:59 45.507762 -122.408527 26 3629ft 211kts
05-Aug-18 15:00 45.552930 -122.435493 281 2978ft 189kts
05-Aug-18 15:01 45.557737 -122.506743 275 3000ft 176kts
05-Aug-18 15:02 45.557488 -122.572109 224 3006ft 175kts
05-Aug-18 15:03 45.517246 -122.599792 203 2992ft 158kts
05-Aug-18 15:04 45.486292 -122.565461 114 2993ft 154kts
05-Aug-18 15:05 45.467952 -122.511373 114 2996ft 150kts
05-Aug-18 15:06 45.449743 -122.458195 114 2992ft 149kts
05-Aug-18 15:07 45.442628 -122.404885 40 3005ft 149kts
05-Aug-18 15:08 45.479541 -122.401323 325 2884ft 148kts
05-Aug-18 15:09 45.514030 -122.432601 329 2508ft 147kts
05-Aug-18 15:10 45.538653 -122.477389 299 1737ft 144kts
05-Aug-18 15:11 45.557730 -122.525823 299 967ft 141kts
05-Aug-18 15:12 45.573500 -122.566067 298 341ft 138kts
05-Aug-18 15:13 45.590799 -122.610322 297 24ft 52kts
05-Aug-18 15:14 45.593470 -122.612853 24 24ft 0kts
05-Aug-18 15:15 45.593182 -122.613063 40 24ft 0kts
05-Aug-18 15:16 45.591900 -122.608274 118 24ft 23kts
05-Aug-18 15:17 45.591413 -122.600610 91 24ft 20kts
05-Aug-18 15:18 45.589350 -122.595129 194 24ft 8kts
05-Aug-18 15:19 45.589146 -122.595244 203 24ft 0kts
05-Aug-18 15:20 45.589146 -122.595244 203 24ft 0kts
05-Aug-18 15:21 45.589146 -122.595244 203 24ft 0kts
05-Aug-18 15:22 45.589146 -122.595244 203 24ft 0kts
05-Aug-18 15:23 45.589146 -122.595244 203 24ft 0kts
05-Aug-18 15:24 45.589146 -122.595244 203 24ft 0kts
05-Aug-18 15:25 45.589146 -122.595244 203 24ft 0kts
05-Aug-18 15:26 45.589146 -122.595244 203 24ft 0kts
05-Aug-18 15:27 45.589146 -122.595244 203 24ft 0kts
05-Aug-18 15:28 45.589146 -122.595244 203 24ft 0kts

Navigation Log

Ident Type
1. KSFO Airport
2. KPDX Airport